Time;durP1;ratioP1;P1;durP2;ratioP2;P2;SDS_P1;SDS_P2;PMS_P1;PMS_P2;Temp;Humidity;BMP_temperature;BMP_pressure;BME280_temperature;BME280_humidity;BME280_pressure;Samples;Min_cycle;Max_cycle;Signal;HPM_P1;HPM_P2
2021/01/01 00:02:11;;;;;;;;;;;2.20;99.90;;;;;;5139737;27;19907;-83
2021/01/01 00:04:42;;;;;;;;;;;2.20;99.90;;;;;;5139527;27;19907;-83
2021/01/01 00:07:07;;;;;;;;;;;2.20;99.90;;;;;;5139608;27;19907;-83
2021/01/01 00:09:40;;;;;;;;;;;2.10;99.90;;;;;;5134700;27;19922;-84
2021/01/01 00:12:12;;;;;;;;;;;2.10;99.90;;;;;;5135989;27;19993;-84
2021/01/01 00:14:48;;;;;;;;;;;2.10;99.90;;;;;;5136144;27;19957;-83
2021/01/01 00:17:19;;;;;;;;;;;2.00;99.90;;;;;;5133021;27;20324;-83
2021/01/01 00:19:50;;;;;;;;;;;2.00;99.90;;;;;;5136913;27;19930;-83
2021/01/01 00:22:18;;;;;;;;;;;2.10;99.90;;;;;;5136787;27;19907;-83
2021/01/01 00:24:44;;;;;;;;;;;2.00;99.90;;;;;;5137452;27;20348;-83
2021/01/01 00:27:12;;;;;;;;;;;2.00;99.90;;;;;;5135889;27;19914;-83
2021/01/01 00:29:44;;;;;;;;;;;2.10;99.90;;;;;;5131710;27;20410;-83
2021/01/01 00:32:19;;;;;;;;;;;2.00;99.90;;;;;;5136413;27;19911;-83
2021/01/01 00:34:48;;;;;;;;;;;2.00;99.90;;;;;;5134866;27;19907;-83
2021/01/01 00:37:19;;;;;;;;;;;2.00;99.90;;;;;;5120459;27;20331;-84
2021/01/01 00:39:49;;;;;;;;;;;2.00;99.90;;;;;;5120835;27;19919;-84
2021/01/01 00:42:15;;;;;;;;;;;1.90;99.90;;;;;;5125716;27;19918;-83
2021/01/01 00:44:42;;;;;;;;;;;1.90;99.90;;;;;;5123486;27;19919;-83
2021/01/01 00:47:11;;;;;;;;;;;1.90;99.90;;;;;;5129118;27;19907;-83
2021/01/01 00:49:42;;;;;;;;;;;2.00;99.90;;;;;;5129504;27;19923;-82
2021/01/01 00:52:13;;;;;;;;;;;2.00;99.90;;;;;;5131041;27;19908;-84
2021/01/01 00:54:38;;;;;;;;;;;1.90;99.90;;;;;;5136842;27;19990;-83
2021/01/01 00:57:04;;;;;;;;;;;1.90;99.90;;;;;;5135200;27;19964;-83
2021/01/01 00:59:35;;;;;;;;;;;1.90;99.90;;;;;;5129940;27;19918;-82
2021/01/01 01:02:01;;;;;;;;;;;1.70;99.90;;;;;;5129552;27;19914;-83
2021/01/01 01:04:32;;;;;;;;;;;1.70;99.90;;;;;;5135968;27;19907;-83
2021/01/01 01:07:01;;;;;;;;;;;1.70;99.90;;;;;;5136159;27;19914;-83
2021/01/01 01:09:36;;;;;;;;;;;1.60;99.90;;;;;;5135109;27;19915;-83
2021/01/01 01:12:07;;;;;;;;;;;1.60;99.90;;;;;;5134435;27;19923;-83
2021/01/01 01:14:38;;;;;;;;;;;1.60;99.90;;;;;;5090373;28;19912;-83
2021/01/01 01:17:09;;;;;;;;;;;1.60;99.90;;;;;;5075874;28;19908;-83
2021/01/01 01:19:54;;;;;;;;;;;1.50;99.90;;;;;;5091406;28;19908;-83
2021/01/01 01:22:31;;;;;;;;;;;1.50;99.90;;;;;;5071634;28;20351;-83
2021/01/01 01:25:11;;;;;;;;;;;1.50;99.90;;;;;;5075446;28;19908;-83
2021/01/01 01:27:36;;;;;;;;;;;1.50;99.90;;;;;;5075358;28;19908;-83
2021/01/01 01:30:08;;;;;;;;;;;1.40;99.90;;;;;;5071114;28;19920;-83
2021/01/01 01:32:39;;;;;;;;;;;1.40;99.90;;;;;;5071001;28;20387;-83
2021/01/01 01:35:16;;;;;;;;;;;1.40;99.90;;;;;;5092432;28;19908;-83
2021/01/01 01:37:52;;;;;;;;;;;1.40;99.90;;;;;;5075060;28;20007;-83
2021/01/01 01:40:21;;;;;;;;;;;1.30;99.90;;;;;;5132404;27;19960;-84
2021/01/01 01:42:49;;;;;;;;;;;1.20;99.90;;;;;;5128637;27;19908;-83
2021/01/01 01:45:22;;;;;;;;;;;1.20;99.90;;;;;;5132740;27;19952;-84
2021/01/01 01:48:01;;;;;;;;;;;1.10;99.90;;;;;;5133670;27;19907;-84
2021/01/01 01:50:33;;;;;;;;;;;1.00;99.90;;;;;;5131844;27;19966;-84
2021/01/01 01:53:06;;;;;;;;;;;1.00;99.90;;;;;;5132308;27;19916;-83
2021/01/01 01:55:35;;;;;;;;;;;0.90;99.90;;;;;;5135130;27;19914;-84
2021/01/01 01:58:04;;;;;;;;;;;0.90;99.90;;;;;;5133208;27;19907;-83
2021/01/01 02:03:17;;;;;;;;;;;0.90;99.90;;;;;;5135298;27;19914;-83
2021/01/01 02:05:51;;;;;;;;;;;0.90;99.90;;;;;;5128435;27;19914;-83
2021/01/01 02:08:19;;;;;;;;;;;0.80;99.90;;;;;;5130247;27;19915;-84
2021/01/01 02:10:53;;;;;;;;;;;0.80;99.90;;;;;;5131291;27;19911;-83
2021/01/01 02:13:23;;;;;;;;;;;0.80;99.90;;;;;;5137192;27;19915;-84
2021/01/01 02:15:55;;;;;;;;;;;0.70;99.90;;;;;;5130420;27;19907;-83
2021/01/01 02:18:42;;;;;;;;;;;0.70;99.90;;;;;;5137129;27;20367;-83
2021/01/01 02:21:20;;;;;;;;;;;0.80;99.90;;;;;;5136783;27;20006;-84
2021/01/01 02:23:50;;;;;;;;;;;0.70;99.90;;;;;;5137152;27;19907;-83
2021/01/01 02:26:16;;;;;;;;;;;0.70;99.90;;;;;;5137468;27;19990;-84
2021/01/01 02:28:44;;;;;;;;;;;0.70;99.90;;;;;;5137000;27;19957;-84
2021/01/01 02:31:15;;;;;;;;;;;0.60;99.90;;;;;;5155661;27;19946;-84
2021/01/01 02:33:52;;;;;;;;;;;0.60;99.90;;;;;;5136863;27;19907;-84
2021/01/01 02:36:21;;;;;;;;;;;0.50;99.90;;;;;;5155661;27;19911;-85
2021/01/01 02:38:55;;;;;;;;;;;0.50;99.90;;;;;;5137196;27;19946;-83
2021/01/01 02:41:31;;;;;;;;;;;0.40;99.90;;;;;;5130460;27;20492;-83
2021/01/01 02:43:57;;;;;;;;;;;0.30;99.90;;;;;;5134064;27;19918;-83
2021/01/01 02:46:22;;;;;;;;;;;0.30;99.90;;;;;;5131643;27;19911;-83
2021/01/01 02:48:56;;;;;;;;;;;0.30;99.90;;;;;;5136868;27;19960;-83
2021/01/01 02:51:30;;;;;;;;;;;0.30;99.90;;;;;;5132720;27;19955;-83
2021/01/01 02:54:03;;;;;;;;;;;0.20;99.90;;;;;;5152330;27;19955;-83
2021/01/01 02:56:37;;;;;;;;;;;0.30;99.90;;;;;;5130718;27;20327;-85
2021/01/01 02:59:06;;;;;;;;;;;0.30;99.90;;;;;;5155328;27;20359;-83
2021/01/01 03:01:48;;;;;;;;;;;0.20;99.90;;;;;;5132824;27;20040;-83
2021/01/01 03:04:24;;;;;;;;;;;0.20;99.90;;;;;;5135499;27;19907;-84
2021/01/01 03:06:53;;;;;;;;;;;0.20;99.90;;;;;;5132241;27;19907;-84
2021/01/01 03:09:21;;;;;;;;;;;0.20;99.90;;;;;;5136981;27;20348;-84
2021/01/01 03:11:53;;;;;;;;;;;0.20;99.90;;;;;;5133812;27;19922;-84
2021/01/01 03:14:29;;;;;;;;;;;0.10;99.90;;;;;;5140801;27;19907;-84
2021/01/01 03:17:00;;;;;;;;;;;0.20;99.90;;;;;;5135136;27;19911;-84
2021/01/01 03:19:28;;;;;;;;;;;0.10;99.90;;;;;;5154827;27;19907;-84
2021/01/01 03:22:04;;;;;;;;;;;0.20;99.90;;;;;;5140283;27;20372;-83
2021/01/01 03:24:35;;;;;;;;;;;0.20;99.90;;;;;;5140639;27;20375;-84
2021/01/01 03:27:04;;;;;;;;;;;0.10;99.90;;;;;;5134952;27;19942;-84
2021/01/01 03:29:33;;;;;;;;;;;0.10;99.90;;;;;;5140698;27;20248;-84
2021/01/01 03:32:04;;;;;;;;;;;0.10;99.90;;;;;;5133637;27;19956;-85
2021/01/01 03:34:52;;;;;;;;;;;0.20;99.90;;;;;;5157312;27;20429;-83
2021/01/01 03:37:24;;;;;;;;;;;0.20;99.90;;;;;;5154531;27;19952;-84
2021/01/01 03:39:54;;;;;;;;;;;0.30;99.90;;;;;;5140476;27;19907;-84
2021/01/01 03:42:23;;;;;;;;;;;0.40;99.90;;;;;;5139821;27;19907;-84
2021/01/01 03:44:48;;;;;;;;;;;0.50;99.90;;;;;;5133553;27;19911;-84
2021/01/01 03:47:16;;;;;;;;;;;0.50;99.90;;;;;;5137115;27;20279;-84
2021/01/01 03:49:47;;;;;;;;;;;0.50;99.90;;;;;;5135863;27;19915;-84
2021/01/01 03:52:23;;;;;;;;;;;0.50;99.90;;;;;;5155104;27;19926;-84
2021/01/01 03:54:59;;;;;;;;;;;0.50;99.90;;;;;;5140267;27;19914;-84
2021/01/01 03:57:25;;;;;;;;;;;0.50;99.90;;;;;;5135755;27;19932;-84
2021/01/01 04:00:04;;;;;;;;;;;0.50;99.90;;;;;;5140212;27;19911;-84
2021/01/01 04:02:32;;;;;;;;;;;0.60;99.90;;;;;;5156448;27;19994;-86
2021/01/01 04:05:04;;;;;;;;;;;0.60;99.90;;;;;;5134766;27;19908;-84
2021/01/01 04:07:39;;;;;;;;;;;0.50;99.90;;;;;;5152513;27;19907;-85
2021/01/01 04:10:08;;;;;;;;;;;0.50;99.90;;;;;;5139761;27;19915;-84
2021/01/01 04:12:38;;;;;;;;;;;0.40;99.90;;;;;;5152463;27;19963;-84
2021/01/01 04:15:10;;;;;;;;;;;0.40;99.90;;;;;;5133420;27;19940;-84
2021/01/01 04:17:38;;;;;;;;;;;0.50;99.90;;;;;;5158026;27;19951;-84
2021/01/01 04:20:07;;;;;;;;;;;0.50;99.90;;;;;;5133576;27;19915;-84
2021/01/01 04:25:32;;;;;;;;;;;0.60;99.90;;;;;;5158449;27;19914;-85
2021/01/01 04:27:58;;;;;;;;;;;0.70;99.90;;;;;;5139374;27;19907;-84
2021/01/01 04:30:40;;;;;;;;;;;0.70;99.90;;;;;;5138731;27;19913;-85
2021/01/01 04:33:17;;;;;;;;;;;0.80;99.90;;;;;;5137019;27;19911;-84
2021/01/01 04:38:48;;;;;;;;;;;0.80;99.90;;;;;;5157663;27;19907;-84
2021/01/01 04:41:17;;;;;;;;;;;0.80;99.90;;;;;;5134544;27;19911;-84
2021/01/01 04:43:58;;;;;;;;;;;0.80;99.90;;;;;;5139752;27;20273;-84
2021/01/01 04:46:31;;;;;;;;;;;0.80;99.90;;;;;;5139016;27;19951;-84
2021/01/01 04:49:03;;;;;;;;;;;0.80;99.90;;;;;;5151509;27;19921;-86
2021/01/01 04:51:39;;;;;;;;;;;0.80;99.90;;;;;;5138500;27;19907;-84
2021/01/01 04:54:11;;;;;;;;;;;0.90;99.90;;;;;;5139019;27;20426;-84
2021/01/01 04:56:51;;;;;;;;;;;0.90;99.90;;;;;;5156966;27;19994;-85
2021/01/01 04:59:20;;;;;;;;;;;0.90;99.90;;;;;;5138899;27;19908;-84
2021/01/01 05:01:50;;;;;;;;;;;0.90;99.90;;;;;;5156906;27;19946;-85
2021/01/01 05:04:18;;;;;;;;;;;0.90;99.90;;;;;;5157151;27;19917;-84
2021/01/01 05:06:48;;;;;;;;;;;0.90;99.90;;;;;;5138240;27;19911;-84
2021/01/01 05:09:18;;;;;;;;;;;0.80;99.90;;;;;;5134504;27;19915;-84
2021/01/01 05:11:52;;;;;;;;;;;0.80;99.90;;;;;;5134818;27;19919;-84
2021/01/01 05:14:27;;;;;;;;;;;0.70;99.90;;;;;;5134205;27;19955;-84
2021/01/01 05:16:55;;;;;;;;;;;0.60;99.90;;;;;;5134750;27;19918;-84
2021/01/01 05:19:57;;;;;;;;;;;0.60;99.90;;;;;;5135310;27;19913;-84
2021/01/01 05:22:39;;;;;;;;;;;0.50;99.90;;;;;;5134319;27;19912;-85
2021/01/01 05:25:18;;;;;;;;;;;0.50;99.90;;;;;;5132228;27;19956;-84
2021/01/01 05:27:47;;;;;;;;;;;0.50;99.90;;;;;;5136327;27;20267;-84
2021/01/01 05:30:34;;;;;;;;;;;0.40;99.90;;;;;;5134449;27;20409;-84
2021/01/01 05:33:05;;;;;;;;;;;0.40;99.90;;;;;;5133279;27;19907;-85
2021/01/01 05:35:37;;;;;;;;;;;0.40;99.90;;;;;;5131765;27;19916;-85
2021/01/01 05:38:16;;;;;;;;;;;0.40;99.90;;;;;;5134325;27;19980;-84
2021/01/01 05:40:46;;;;;;;;;;;0.40;99.90;;;;;;5131554;27;20371;-84
2021/01/01 05:43:30;;;;;;;;;;;0.40;99.90;;;;;;5134372;27;20283;-84
2021/01/01 05:46:15;;;;;;;;;;;0.40;99.90;;;;;;5134976;27;20456;-84
2021/01/01 05:48:51;;;;;;;;;;;0.30;99.90;;;;;;5134990;27;19915;-84
2021/01/01 05:51:18;;;;;;;;;;;0.30;99.90;;;;;;5133919;27;20408;-84
2021/01/01 05:53:47;;;;;;;;;;;0.30;99.90;;;;;;5134128;27;19956;-85
2021/01/01 05:56:18;;;;;;;;;;;0.30;99.90;;;;;;5130129;27;19937;-84
2021/01/01 05:58:52;;;;;;;;;;;0.20;99.90;;;;;;5135881;27;19911;-84
2021/01/01 06:01:28;;;;;;;;;;;0.30;99.90;;;;;;5130907;27;20417;-85
2021/01/01 06:03:56;;;;;;;;;;;0.20;99.90;;;;;;5135346;27;19914;-85
2021/01/01 06:06:27;;;;;;;;;;;0.20;99.90;;;;;;5132020;27;19919;-85
2021/01/01 06:09:02;;;;;;;;;;;0.20;99.90;;;;;;5126940;27;19915;-84
2021/01/01 06:11:39;;;;;;;;;;;0.20;99.90;;;;;;5131396;27;20022;-84
2021/01/01 06:14:16;;;;;;;;;;;0.20;99.90;;;;;;5134005;27;19907;-84
2021/01/01 06:16:55;;;;;;;;;;;0.20;99.90;;;;;;5132874;27;19907;-84
2021/01/01 06:19:39;;;;;;;;;;;0.20;99.90;;;;;;5133911;27;19907;-84
2021/01/01 06:22:08;;;;;;;;;;;0.20;99.90;;;;;;5132407;27;19907;-84
2021/01/01 06:24:41;;;;;;;;;;;0.20;99.90;;;;;;5133881;27;20306;-84
2021/01/01 06:27:15;;;;;;;;;;;0.30;99.90;;;;;;5127270;27;19933;-84
2021/01/01 06:29:42;;;;;;;;;;;0.30;99.90;;;;;;5129224;27;19915;-84
2021/01/01 06:32:13;;;;;;;;;;;0.40;99.90;;;;;;5134090;27;19908;-84
2021/01/01 06:34:44;;;;;;;;;;;0.40;99.90;;;;;;5133872;27;20280;-85
2021/01/01 06:37:37;;;;;;;;;;;0.40;99.90;;;;;;5128268;28;19911;-84
2021/01/01 06:40:03;;;;;;;;;;;0.50;99.90;;;;;;5134850;28;19911;-85
2021/01/01 06:42:48;;;;;;;;;;;0.50;99.90;;;;;;5133887;28;20265;-84
2021/01/01 06:45:41;;;;;;;;;;;0.50;99.90;;;;;;5137862;27;20333;-84
2021/01/01 06:48:42;;;;;;;;;;;0.50;99.90;;;;;;5137738;27;19998;-85
2021/01/01 06:51:31;;;;;;;;;;;0.60;99.90;;;;;;5139854;27;20368;-84
2021/01/01 06:54:10;;;;;;;;;;;0.60;99.90;;;;;;5138733;27;19907;-85
2021/01/01 06:56:42;;;;;;;;;;;0.60;99.90;;;;;;5130444;27;20002;-85
2021/01/01 06:59:11;;;;;;;;;;;0.60;99.90;;;;;;5137986;27;19907;-84
2021/01/01 07:02:08;;;;;;;;;;;0.60;99.90;;;;;;5137325;27;19915;-84
2021/01/01 07:04:46;;;;;;;;;;;0.60;99.90;;;;;;5137163;27;19908;-84
2021/01/01 07:07:37;;;;;;;;;;;0.60;99.90;;;;;;5137386;27;19961;-84
2021/01/01 07:10:07;;;;;;;;;;;0.60;99.90;;;;;;5137901;27;19970;-84
2021/01/01 07:12:35;;;;;;;;;;;0.60;99.90;;;;;;5130485;27;20135;-84
2021/01/01 07:15:25;;;;;;;;;;;0.60;99.90;;;;;;5137084;27;20364;-86
2021/01/01 07:17:59;;;;;;;;;;;0.60;99.90;;;;;;5138496;27;19908;-84
2021/01/01 07:20:38;;;;;;;;;;;0.60;99.90;;;;;;5137409;27;19908;-85
2021/01/01 07:23:03;;;;;;;;;;;0.50;99.90;;;;;;5137820;27;19919;-84
2021/01/01 07:25:38;;;;;;;;;;;0.50;99.90;;;;;;5136687;27;19907;-85
2021/01/01 07:28:08;;;;;;;;;;;0.60;99.90;;;;;;5136860;27;19919;-84
2021/01/01 07:30:39;;;;;;;;;;;0.60;99.90;;;;;;5138409;27;20364;-85
2021/01/01 07:33:07;;;;;;;;;;;0.60;99.90;;;;;;5136813;27;19908;-84
2021/01/01 07:35:54;;;;;;;;;;;0.60;99.90;;;;;;5132771;27;20426;-84
2021/01/01 07:38:26;;;;;;;;;;;0.70;99.90;;;;;;5136609;27;19908;-85
2021/01/01 07:41:08;;;;;;;;;;;0.70;99.90;;;;;;5137329;27;19908;-84
2021/01/01 07:43:39;;;;;;;;;;;0.70;99.90;;;;;;5136975;27;19911;-86
2021/01/01 07:46:14;;;;;;;;;;;0.70;99.90;;;;;;5138208;27;19907;-86
2021/01/01 07:48:40;;;;;;;;;;;0.70;99.90;;;;;;5138172;27;19937;-86
2021/01/01 07:51:19;;;;;;;;;;;0.70;99.90;;;;;;5138126;27;20352;-84
2021/01/01 07:53:57;;;;;;;;;;;0.70;99.90;;;;;;5136904;27;20355;-84
2021/01/01 07:56:25;;;;;;;;;;;0.70;99.90;;;;;;5133026;27;19911;-85
2021/01/01 07:58:55;;;;;;;;;;;0.80;99.90;;;;;;5137149;27;20271;-84
2021/01/01 08:01:42;;;;;;;;;;;0.80;99.90;;;;;;5137740;27;20428;-85
2021/01/01 08:04:22;;;;;;;;;;;0.80;99.90;;;;;;5136530;27;19915;-84
2021/01/01 08:06:48;;;;;;;;;;;0.90;99.90;;;;;;5132385;27;19907;-84
2021/01/01 08:09:28;;;;;;;;;;;0.90;99.90;;;;;;5130059;27;19916;-85
2021/01/01 08:12:02;;;;;;;;;;;1.00;99.90;;;;;;5133411;27;19927;-85
2021/01/01 08:14:39;;;;;;;;;;;1.00;99.90;;;;;;5136553;27;19932;-85
2021/01/01 08:17:21;;;;;;;;;;;1.10;99.90;;;;;;5137621;27;20010;-84
2021/01/01 08:19:47;;;;;;;;;;;1.10;99.90;;;;;;5136220;27;20360;-84
2021/01/01 08:22:23;;;;;;;;;;;1.20;99.90;;;;;;5132749;27;19915;-85
2021/01/01 08:24:56;;;;;;;;;;;1.20;99.90;;;;;;5133096;27;19912;-84
2021/01/01 08:27:28;;;;;;;;;;;1.20;99.90;;;;;;5136201;27;19964;-84
2021/01/01 08:29:59;;;;;;;;;;;1.30;99.90;;;;;;5130216;27;19915;-86
2021/01/01 08:32:32;;;;;;;;;;;1.30;99.90;;;;;;5135472;27;20325;-85
2021/01/01 08:35:18;;;;;;;;;;;1.30;99.90;;;;;;5135947;27;19918;-85
2021/01/01 08:37:46;;;;;;;;;;;1.40;99.90;;;;;;5134105;27;19907;-84
2021/01/01 08:40:26;;;;;;;;;;;1.40;99.90;;;;;;5135295;27;20006;-84
2021/01/01 08:42:57;;;;;;;;;;;1.50;99.90;;;;;;5130791;27;19982;-85
2021/01/01 08:45:40;;;;;;;;;;;1.60;99.90;;;;;;5122276;27;20009;-85
2021/01/01 08:48:12;;;;;;;;;;;1.60;99.90;;;;;;5126156;27;20360;-85
2021/01/01 08:50:45;;;;;;;;;;;1.70;99.90;;;;;;5123501;27;20041;-85
2021/01/01 08:53:14;;;;;;;;;;;1.70;99.90;;;;;;5120318;27;19918;-85
2021/01/01 08:55:46;;;;;;;;;;;1.80;99.90;;;;;;5123429;27;19915;-84
2021/01/01 08:58:17;;;;;;;;;;;1.90;99.90;;;;;;5128421;27;19922;-84
2021/01/01 09:00:46;;;;;;;;;;;2.00;99.90;;;;;;5118404;27;19920;-85
2021/01/01 09:03:15;;;;;;;;;;;2.00;99.90;;;;;;5134884;27;20360;-84
2021/01/01 09:05:42;;;;;;;;;;;2.10;99.90;;;;;;5135207;27;19918;-84
2021/01/01 09:08:14;;;;;;;;;;;2.20;99.90;;;;;;5133177;27;20363;-84
2021/01/01 09:10:48;;;;;;;;;;;2.20;99.90;;;;;;5135002;27;20313;-84
2021/01/01 09:13:24;;;;;;;;;;;2.30;99.90;;;;;;5154917;27;19919;-84
2021/01/01 09:16:07;;;;;;;;;;;2.30;99.90;;;;;;5156664;27;20359;-84
2021/01/01 09:18:36;;;;;;;;;;;2.40;99.90;;;;;;5137992;27;20000;-84
2021/01/01 09:21:11;;;;;;;;;;;2.50;99.90;;;;;;5138509;27;19914;-84
2021/01/01 09:23:37;;;;;;;;;;;2.60;99.90;;;;;;5138697;27;19907;-84
2021/01/01 09:26:11;;;;;;;;;;;2.70;99.90;;;;;;5137473;27;19918;-84
2021/01/01 09:28:41;;;;;;;;;;;2.80;99.90;;;;;;5133858;27;19918;-84
2021/01/01 09:31:23;;;;;;;;;;;2.90;99.90;;;;;;5156817;27;19911;-84
2021/01/01 09:34:24;;;;;;;;;;;2.90;99.90;;;;;;5134931;27;20379;-84
2021/01/01 09:36:55;;;;;;;;;;;2.90;99.90;;;;;;5150960;27;20290;-84
2021/01/01 09:39:28;;;;;;;;;;;2.90;99.90;;;;;;5116868;27;20042;-85
2021/01/01 09:42:00;;;;;;;;;;;3.00;99.90;;;;;;5126529;27;19920;-84
2021/01/01 09:44:31;;;;;;;;;;;3.00;99.90;;;;;;5132851;27;19911;-85
2021/01/01 09:47:05;;;;;;;;;;;3.00;99.90;;;;;;5111589;27;20007;-85
2021/01/01 09:49:30;;;;;;;;;;;3.00;99.90;;;;;;5117191;27;20002;-84
2021/01/01 09:51:57;;;;;;;;;;;3.20;99.90;;;;;;5111112;27;19992;-85
2021/01/01 09:54:26;;;;;;;;;;;3.30;99.90;;;;;;5117707;27;19911;-85
2021/01/01 09:56:53;;;;;;;;;;;3.50;99.90;;;;;;5114352;27;19914;-86
2021/01/01 09:59:42;;;;;;;;;;;3.60;99.90;;;;;;5117093;27;20356;-84
2021/01/01 10:02:21;;;;;;;;;;;3.70;99.90;;;;;;5135530;27;19907;-84
2021/01/01 10:04:50;;;;;;;;;;;3.80;99.90;;;;;;5116881;27;19911;-84
2021/01/01 10:07:16;;;;;;;;;;;3.80;99.90;;;;;;5112536;27;19907;-85
2021/01/01 10:09:55;;;;;;;;;;;3.70;99.90;;;;;;5116532;27;19920;-84
2021/01/01 10:12:27;;;;;;;;;;;3.70;99.90;;;;;;5116325;27;20411;-84
2021/01/01 10:14:57;;;;;;;;;;;3.80;99.90;;;;;;5113288;27;20014;-84
2021/01/01 10:17:26;;;;;;;;;;;3.90;99.90;;;;;;5135210;27;20428;-84
2021/01/01 10:19:57;;;;;;;;;;;4.00;99.90;;;;;;5131615;27;19911;-84
2021/01/01 10:22:23;;;;;;;;;;;4.00;99.90;;;;;;5132368;27;19922;-84
2021/01/01 10:24:51;;;;;;;;;;;4.10;99.90;;;;;;5118287;27;19998;-84
2021/01/01 10:27:17;;;;;;;;;;;4.10;99.90;;;;;;5112654;28;19911;-84
2021/01/01 10:29:48;;;;;;;;;;;4.10;99.90;;;;;;5116277;27;19965;-84
2021/01/01 10:32:14;;;;;;;;;;;4.10;99.90;;;;;;5116547;27;19998;-84
2021/01/01 10:34:42;;;;;;;;;;;4.20;99.90;;;;;;5129587;27;19950;-84
2021/01/01 10:37:09;;;;;;;;;;;4.40;99.90;;;;;;5134604;27;20356;-83
2021/01/01 10:39:44;;;;;;;;;;;4.50;99.90;;;;;;5134867;27;19908;-83
2021/01/01 10:42:10;;;;;;;;;;;4.60;99.90;;;;;;5116334;28;19994;-84
2021/01/01 10:44:40;;;;;;;;;;;4.70;99.90;;;;;;5111588;28;19961;-84
2021/01/01 10:47:08;;;;;;;;;;;4.80;99.90;;;;;;5130471;28;20324;-84
2021/01/01 10:49:39;;;;;;;;;;;4.90;99.90;;;;;;5134771;28;19915;-83
2021/01/01 10:52:12;;;;;;;;;;;4.80;99.90;;;;;;5116557;28;19908;-84
2021/01/01 10:54:38;;;;;;;;;;;4.80;99.90;;;;;;5132001;28;19908;-83
2021/01/01 10:57:04;;;;;;;;;;;4.80;99.90;;;;;;5116463;28;19907;-84
2021/01/01 10:59:40;;;;;;;;;;;4.90;99.90;;;;;;5111176;28;20002;-83
2021/01/01 11:02:08;;;;;;;;;;;5.10;99.90;;;;;;5125665;27;19907;-84
2021/01/01 11:04:43;;;;;;;;;;;5.50;99.90;;;;;;5134265;27;19930;-83
2021/01/01 11:07:10;;;;;;;;;;;5.80;99.90;;;;;;5123120;27;19986;-84
2021/01/01 11:09:38;;;;;;;;;;;6.00;99.90;;;;;;5120424;27;20309;-84
2021/01/01 11:12:06;;;;;;;;;;;6.00;99.90;;;;;;5123052;27;19962;-85
2021/01/01 11:15:14;;;;;;;;;;;6.00;99.90;;;;;;5126340;27;19926;-83
2021/01/01 12:24:27;;;;;;;;;;;5.80;99.90;;;;;;5157412;27;20365;-83
2021/01/01 12:27:03;;;;;;;;;;;5.90;99.90;;;;;;5138211;27;20359;-83
2021/01/01 12:29:37;;;;;;;;;;;5.90;99.90;;;;;;5126863;27;19927;-84
2021/01/01 12:32:05;;;;;;;;;;;6.00;99.90;;;;;;5129526;27;19998;-83
2021/01/01 12:34:35;;;;;;;;;;;6.10;99.90;;;;;;5135710;27;19914;-84
2021/01/01 12:37:04;;;;;;;;;;;6.10;99.90;;;;;;5129230;27;19918;-83
2021/01/01 12:39:38;;;;;;;;;;;6.20;99.90;;;;;;5138470;27;19974;-85
2021/01/01 12:42:09;;;;;;;;;;;6.20;99.90;;;;;;5138114;27;19958;-83
2021/01/01 12:44:38;;;;;;;;;;;6.20;99.90;;;;;;5151126;27;19963;-84
2021/01/01 12:47:04;;;;;;;;;;;6.10;99.90;;;;;;5156549;27;19918;-83
2021/01/01 12:49:29;;;;;;;;;;;6.10;99.90;;;;;;5156239;27;19915;-83
2021/01/01 12:51:57;;;;;;;;;;;6.10;99.90;;;;;;5133239;27;19915;-84
2021/01/01 12:54:29;;;;;;;;;;;6.10;99.90;;;;;;5122354;27;19911;-83
2021/01/01 12:57:03;;;;;;;;;;;6.20;99.90;;;;;;5117441;27;19958;-83
2021/01/01 12:59:34;;;;;;;;;;;6.20;99.90;;;;;;5146607;27;19947;-84
2021/01/01 13:02:02;;;;;;;;;;;6.20;99.90;;;;;;5156466;27;20331;-85
2021/01/01 13:04:33;;;;;;;;;;;6.20;99.90;;;;;;5113202;27;19994;-84
2021/01/01 13:07:01;;;;;;;;;;;6.20;99.90;;;;;;5135556;27;19907;-84
2021/01/01 13:09:27;;;;;;;;;;;6.20;99.90;;;;;;5128091;27;19915;-84
2021/01/01 13:11:55;;;;;;;;;;;6.20;99.90;;;;;;5120196;27;19916;-85
2021/01/01 13:14:29;;;;;;;;;;;6.20;99.90;;;;;;5112379;27;19965;-85
2021/01/01 13:17:06;;;;;;;;;;;6.20;99.90;;;;;;5123369;27;20037;-85
2021/01/01 13:19:32;;;;;;;;;;;6.30;99.90;;;;;;5137855;27;19907;-85
2021/01/01 13:22:00;;;;;;;;;;;6.30;99.90;;;;;;5121180;27;19957;-85
2021/01/01 13:24:46;;;;;;;;;;;6.20;99.90;;;;;;5117751;27;19911;-85
2021/01/01 13:27:31;;;;;;;;;;;6.10;99.90;;;;;;5134158;27;19912;-87
2021/01/01 13:30:11;;;;;;;;;;;5.90;99.90;;;;;;5116077;27;19961;-85
2021/01/01 13:32:43;;;;;;;;;;;5.90;99.90;;;;;;5117749;27;19911;-85
2021/01/01 13:35:12;;;;;;;;;;;5.90;99.90;;;;;;5136455;27;20363;-86
2021/01/01 13:37:44;;;;;;;;;;;6.20;99.90;;;;;;5129429;27;19954;-85
2021/01/01 13:40:16;;;;;;;;;;;6.50;99.90;;;;;;5130278;27;19963;-85
2021/01/01 13:42:47;;;;;;;;;;;6.70;99.90;;;;;;5140790;27;19912;-85
2021/01/01 13:45:18;;;;;;;;;;;6.70;99.90;;;;;;5140009;27;20482;-85
2021/01/01 13:47:48;;;;;;;;;;;6.60;99.90;;;;;;5116963;27;19922;-85
2021/01/01 13:50:14;;;;;;;;;;;6.50;99.90;;;;;;5126123;27;19924;-85
2021/01/01 13:52:43;;;;;;;;;;;6.50;99.90;;;;;;5125306;27;20279;-84
2021/01/01 13:55:11;;;;;;;;;;;6.40;99.90;;;;;;5131960;27;19980;-85
2021/01/01 13:57:37;;;;;;;;;;;6.40;99.90;;;;;;5135249;27;19907;-84
2021/01/01 14:00:13;;;;;;;;;;;6.20;99.90;;;;;;5117327;27;20308;-85
2021/01/01 14:02:42;;;;;;;;;;;6.10;99.90;;;;;;5117111;27;19957;-86
2021/01/01 14:05:07;;;;;;;;;;;5.90;99.90;;;;;;5129435;27;19911;-85
2021/01/01 14:07:36;;;;;;;;;;;5.70;99.90;;;;;;5137586;27;19911;-85
2021/01/01 14:10:21;;;;;;;;;;;5.60;99.90;;;;;;5154662;27;20437;-85
2021/01/01 14:12:50;;;;;;;;;;;5.50;99.90;;;;;;5145011;27;19923;-85
2021/01/01 14:15:16;;;;;;;;;;;5.50;99.90;;;;;;5116560;27;19914;-84
2021/01/01 14:17:47;;;;;;;;;;;5.50;99.90;;;;;;5113550;27;19911;-84
2021/01/01 14:20:27;;;;;;;;;;;5.50;99.90;;;;;;5050712;28;19987;-84
2021/01/01 14:23:02;;;;;;;;;;;5.50;99.90;;;;;;5054752;28;20376;-84
2021/01/01 14:25:27;;;;;;;;;;;5.50;99.90;;;;;;5050542;28;20003;-85
2021/01/01 14:27:56;;;;;;;;;;;5.50;99.90;;;;;;5061919;28;20014;-85
2021/01/01 14:30:25;;;;;;;;;;;5.50;99.90;;;;;;5072830;28;19928;-85
2021/01/01 14:32:55;;;;;;;;;;;5.60;99.90;;;;;;5067890;28;19916;-85
2021/01/01 14:35:31;;;;;;;;;;;5.60;99.90;;;;;;5051702;28;20389;-86
2021/01/01 14:38:03;;;;;;;;;;;5.60;99.90;;;;;;5071080;28;20384;-85
2021/01/01 14:40:31;;;;;;;;;;;5.50;99.90;;;;;;5051809;28;19909;-85
2021/01/01 14:43:03;;;;;;;;;;;5.40;99.90;;;;;;5071410;28;20047;-84
2021/01/01 14:45:31;;;;;;;;;;;5.40;99.90;;;;;;5050623;28;20392;-84
2021/01/01 14:47:59;;;;;;;;;;;5.50;99.90;;;;;;5054336;28;19927;-84
2021/01/01 14:50:24;;;;;;;;;;;5.50;99.90;;;;;;5084233;28;19920;-84
2021/01/01 14:52:55;;;;;;;;;;;5.50;99.90;;;;;;5116280;28;20370;-84
2021/01/01 14:55:21;;;;;;;;;;;5.50;99.90;;;;;;5134494;28;19915;-84
2021/01/01 14:57:52;;;;;;;;;;;5.60;99.90;;;;;;5132264;27;19911;-85
2021/01/01 15:00:19;;;;;;;;;;;5.60;99.90;;;;;;5137417;27;19907;-84
2021/01/01 15:02:48;;;;;;;;;;;5.60;99.90;;;;;;5119700;27;20009;-83
2021/01/01 15:05:13;;;;;;;;;;;5.60;99.90;;;;;;5127044;27;20415;-84
2021/01/01 15:07:39;;;;;;;;;;;5.50;99.90;;;;;;5043634;28;20042;-83
2021/01/01 15:10:08;;;;;;;;;;;5.50;99.90;;;;;;5056083;28;19924;-83
2021/01/01 15:12:36;;;;;;;;;;;5.40;99.90;;;;;;5037224;28;19924;-83
2021/01/01 15:15:07;;;;;;;;;;;5.40;99.90;;;;;;5037781;28;19994;-83
2021/01/01 15:17:36;;;;;;;;;;;5.40;99.90;;;;;;5036562;28;19912;-84
2021/01/01 15:20:07;;;;;;;;;;;5.40;99.90;;;;;;4997930;28;20378;-84
2021/01/01 15:22:47;;;;;;;;;;;5.40;99.90;;;;;;5005267;28;19917;-84
2021/01/01 15:25:15;;;;;;;;;;;5.30;99.90;;;;;;5005531;28;20307;-84
2021/01/01 15:27:50;;;;;;;;;;;5.30;99.90;;;;;;5011458;28;19913;-86
2021/01/01 15:30:24;;;;;;;;;;;5.30;99.90;;;;;;5014548;28;19917;-85
2021/01/01 15:32:52;;;;;;;;;;;5.30;99.90;;;;;;5014088;28;19920;-85
2021/01/01 15:35:23;;;;;;;;;;;5.20;99.90;;;;;;5009840;28;19909;-85
2021/01/01 15:37:49;;;;;;;;;;;5.20;99.90;;;;;;5020472;28;19980;-84
2021/01/01 15:40:20;;;;;;;;;;;5.10;99.90;;;;;;5033194;28;19958;-84
2021/01/01 15:42:55;;;;;;;;;;;5.00;99.90;;;;;;5052187;28;19955;-85
2021/01/01 15:45:28;;;;;;;;;;;4.90;99.90;;;;;;5034300;28;19917;-85
2021/01/01 15:47:59;;;;;;;;;;;4.80;99.90;;;;;;5031537;28;19913;-85
2021/01/01 15:50:35;;;;;;;;;;;4.80;99.90;;;;;;5053827;28;19920;-85
2021/01/01 15:53:06;;;;;;;;;;;4.80;99.90;;;;;;5096699;28;19995;-85
2021/01/01 15:55:37;;;;;;;;;;;4.80;99.90;;;;;;5098463;28;19934;-85
2021/01/01 15:58:14;;;;;;;;;;;4.80;99.90;;;;;;5098158;28;19941;-85
2021/01/01 16:00:43;;;;;;;;;;;4.90;99.90;;;;;;5123233;27;20529;-84
2021/01/01 16:03:10;;;;;;;;;;;4.90;99.90;;;;;;5119333;27;19912;-84
2021/01/01 16:05:42;;;;;;;;;;;4.90;99.90;;;;;;5095918;28;19951;-84
2021/01/01 16:08:13;;;;;;;;;;;4.90;99.90;;;;;;5098636;28;19912;-84
2021/01/01 16:10:41;;;;;;;;;;;5.00;99.90;;;;;;5119855;27;19916;-84
2021/01/01 16:13:09;;;;;;;;;;;4.90;99.90;;;;;;5104257;27;19926;-86
2021/01/01 16:15:38;;;;;;;;;;;5.00;99.90;;;;;;5114875;28;19912;-84
2021/01/01 16:18:07;;;;;;;;;;;5.00;99.90;;;;;;5114702;28;19962;-84